createdAt,value
2016-12-01T00:00:40.734Z,99.7
2016-12-01T00:01:40.693Z,99.51
2016-12-01T00:02:40.650Z,99.32
2016-12-01T00:03:40.602Z,99.13
2016-12-01T00:04:40.606Z,98.94
2016-12-01T00:05:40.518Z,99.04
2016-12-01T00:06:40.485Z,99.04
2016-12-01T00:07:40.129Z,98.57
2016-12-01T00:08:40.393Z,98.66
2016-12-01T00:09:40.046Z,98.85
2016-12-01T00:10:39.998Z,99.13
2016-12-01T00:11:39.960Z,99.22
2016-12-01T00:12:40.221Z,99.41
2016-12-01T00:13:39.873Z,99.13
2016-12-01T00:14:39.829Z,99.04
2016-12-01T00:15:40.088Z,98.85
2016-12-01T00:16:39.741Z,98.94
2016-12-01T00:17:39.700Z,98.66
2016-12-01T00:18:39.959Z,99.22
2016-12-01T00:19:39.608Z,98.66
2016-12-01T00:20:39.570Z,99.41
2016-12-01T00:21:39.830Z,99.22
2016-12-01T00:22:39.486Z,99.22
2016-12-01T00:23:39.744Z,99.13
2016-12-01T00:24:39.699Z,99.13
2016-12-01T00:25:39.660Z,99.04
2016-12-01T00:26:39.312Z,99.04
2016-12-01T00:27:39.564Z,99.04
2016-12-01T00:28:39.525Z,99.32
2016-12-01T00:29:39.481Z,99.41
2016-12-01T00:30:39.439Z,98.94
2016-12-01T00:31:39.095Z,99.13
2016-12-01T00:32:39.353Z,99.22
2016-12-01T00:33:39.312Z,99.41
2016-12-01T00:34:38.968Z,99.6
2016-12-01T00:35:39.226Z,99.51
2016-12-01T00:36:39.181Z,99.22
2016-12-01T00:37:39.139Z,99.22
2016-12-01T00:38:39.098Z,99.22
2016-12-01T00:39:39.051Z,99.6
2016-12-01T00:40:38.704Z,99.32
2016-12-01T00:41:38.967Z,99.32
2016-12-01T00:42:38.926Z,99.46
2016-12-01T00:43:38.879Z,99.04
2016-12-01T00:44:38.837Z,99.18
2016-12-01T00:45:38.792Z,99.46
2016-12-01T00:46:38.449Z,99.41
2016-12-01T00:47:38.707Z,99.32
2016-12-01T00:48:38.668Z,99.99
2016-12-01T00:49:38.625Z,99.99
2016-12-01T00:50:38.271Z,99.65
2016-12-01T00:51:38.532Z,99.98
2016-12-01T00:52:38.491Z,99.88
2016-12-01T00:53:38.445Z,99.88
2016-12-01T00:54:38.401Z,99.88
2016-12-01T00:55:38.061Z,99.98
2016-12-01T00:56:38.322Z,99.88
2016-12-01T00:57:38.270Z,99.88
2016-12-01T00:58:38.228Z,99.98
2016-12-01T00:59:38.185Z,99.98
2016-12-01T01:00:38.141Z,99.7
2016-12-01T01:01:37.796Z,99.88
2016-12-01T01:02:38.054Z,99.88
2016-12-01T01:03:38.010Z,99.88
2016-12-01T01:04:37.966Z,99.98
2016-12-01T01:05:37.923Z,99.79
2016-12-01T01:06:37.880Z,99.88
2016-12-01T01:07:37.839Z,99.79
2016-12-01T01:08:37.493Z,99.98
2016-12-01T01:09:37.749Z,99.98
2016-12-01T01:10:37.709Z,99.88
2016-12-01T01:11:37.361Z,99.79
2016-12-01T01:12:37.324Z,99.79
2016-12-01T01:13:37.274Z,99.98
2016-12-01T01:14:37.537Z,99.99
2016-12-01T01:15:37.491Z,99.99
2016-12-01T01:16:37.145Z,99.98
2016-12-01T01:17:37.407Z,99.98
2016-12-01T01:18:37.363Z,99.98
2016-12-01T01:19:37.316Z,99.99
2016-12-01T01:20:37.276Z,99.99
2016-12-01T01:21:36.933Z,99.88
2016-12-01T01:22:37.186Z,99.88
2016-12-01T01:23:36.843Z,99.88
2016-12-01T01:24:36.800Z,99.99
2016-12-01T01:25:36.756Z,99.99
2016-12-01T01:26:37.017Z,99.99
2016-12-01T01:27:36.973Z,99.98
2016-12-01T01:28:36.624Z,99.98
2016-12-01T01:29:36.583Z,99.6
2016-12-01T01:30:36.538Z,99.7
2016-12-01T01:31:36.799Z,99.98
2016-12-01T01:32:36.756Z,99.98
2016-12-01T01:33:36.712Z,99.99
2016-12-01T01:34:36.369Z,99.88
2016-12-01T01:35:36.631Z,99.88
2016-12-01T01:36:36.582Z,99.99
2016-12-01T01:37:36.542Z,99.88
2016-12-01T01:38:36.498Z,99.79
2016-12-01T01:39:36.453Z,99.79
2016-12-01T01:40:36.411Z,99.99
2016-12-01T01:41:36.370Z,99.99
2016-12-01T01:42:36.325Z,99.99
2016-12-01T01:43:36.279Z,99.99
2016-12-01T01:44:36.239Z,99.99
2016-12-01T01:45:36.197Z,99.98
2016-12-01T01:46:36.150Z,99.99
2016-12-01T01:47:36.108Z,99.99
2016-12-01T01:48:35.761Z,99.79
2016-12-01T01:49:35.716Z,99.79
2016-12-01T01:50:35.676Z,99.88
2016-12-01T01:51:35.934Z,99.99
2016-12-01T01:52:35.891Z,99.88
2016-12-01T01:53:35.850Z,99.98
2016-12-01T01:54:35.805Z,99.99
2016-12-01T01:55:35.764Z,99.79
2016-12-01T01:56:35.719Z,99.98
2016-12-01T01:57:35.679Z,99.88
2016-12-01T01:58:35.631Z,99.79
2016-12-01T01:59:35.588Z,99.98
2016-12-01T02:00:35.543Z,99.88
2016-12-01T02:01:35.502Z,99.88
2016-12-01T02:02:35.157Z,99.99
2016-12-01T02:03:35.412Z,99.6
2016-12-01T02:04:35.368Z,99.79
2016-12-01T02:05:35.327Z,99.98
2016-12-01T02:06:35.284Z,99.6
2016-12-01T02:07:35.241Z,99.79
2016-12-01T02:08:35.198Z,99.99
2016-12-01T02:09:35.157Z,99.7
2016-12-01T02:10:35.112Z,99.99
2016-12-01T02:11:35.067Z,99.79
2016-12-01T02:12:35.025Z,99.7
2016-12-01T02:13:34.677Z,99.98
2016-12-01T02:14:34.938Z,99.99
2016-12-01T02:15:34.893Z,99.7
2016-12-01T02:16:34.853Z,99.99
2016-12-01T02:17:34.507Z,99.7
2016-12-01T02:18:34.464Z,99.99
2016-12-01T02:19:34.720Z,99.6
2016-12-01T02:20:34.678Z,99.32
2016-12-01T02:21:34.331Z,99.32
2016-12-01T02:22:34.368Z,99.32
2016-12-01T02:23:34.545Z,99.41
2016-12-01T02:24:34.504Z,99.51
2016-12-01T02:25:34.459Z,99.51
2016-12-01T02:26:34.416Z,99.51
2016-12-01T02:27:34.375Z,99.32
2016-12-01T02:28:34.331Z,99.32
2016-12-01T02:29:34.288Z,99.22
2016-12-01T02:30:33.941Z,99.18
2016-12-01T02:31:34.200Z,99.04
2016-12-01T02:32:34.156Z,99.22
2016-12-01T02:33:34.116Z,99.37
2016-12-01T02:34:33.767Z,99.04
2016-12-01T02:35:34.039Z,99.55
2016-12-01T02:36:33.985Z,99.6
2016-12-01T02:37:33.938Z,99.55
2016-12-01T02:38:33.900Z,99.55
2016-12-01T02:39:33.855Z,99.41
2016-12-01T02:40:33.809Z,99.46
2016-12-01T02:41:33.465Z,99.99
2016-12-01T02:42:33.743Z,99.99
2016-12-01T02:43:33.682Z,99.84
2016-12-01T02:44:33.475Z,99.88
2016-12-01T02:45:33.598Z,99.98
2016-12-01T02:46:33.553Z,99.88
2016-12-01T02:47:33.509Z,99.88
2016-12-01T02:48:33.465Z,99.93
2016-12-01T02:49:33.422Z,99.88
2016-12-01T02:50:33.377Z,99.84
2016-12-01T02:51:33.336Z,99.65
2016-12-01T02:52:33.293Z,99.99
2016-12-01T02:53:33.246Z,99.6
2016-12-01T02:54:33.203Z,99.51
2016-12-01T02:55:33.160Z,99.37
2016-12-01T02:56:32.815Z,99.46
2016-12-01T02:57:33.077Z,99.46
2016-12-01T02:58:33.031Z,99.46
2016-12-01T02:59:32.987Z,99.99
2016-12-01T03:00:32.945Z,99.99
2016-12-01T03:01:32.902Z,99.93
2016-12-01T03:02:32.553Z,99.84
2016-12-01T03:03:32.815Z,99.84
2016-12-01T03:04:32.771Z,99.84
2016-12-01T03:05:32.424Z,99.84
2016-12-01T03:06:32.685Z,99.93
2016-12-01T03:07:32.644Z,99.93
2016-12-01T03:08:32.597Z,99.99
2016-12-01T03:09:32.250Z,99.99
2016-12-01T03:10:32.208Z,99.88
2016-12-01T03:11:32.468Z,99.88
2016-12-01T03:12:32.425Z,99.74
2016-12-01T03:13:32.381Z,99.99
2016-12-01T03:14:32.034Z,99.98
2016-12-01T03:15:32.297Z,99.99
2016-12-01T03:16:32.251Z,99.74
2016-12-01T03:17:32.209Z,99.99
2016-12-01T03:18:32.164Z,99.99
2016-12-01T03:19:32.121Z,99.93
2016-12-01T03:20:31.784Z,99.84
2016-12-01T03:21:32.035Z,99.93
2016-12-01T03:22:31.990Z,99.93
2016-12-01T03:23:31.949Z,99.99
2016-12-01T03:24:31.623Z,99.99
2016-12-01T03:25:31.861Z,99.88
2016-12-01T03:26:31.817Z,99.84
2016-12-01T03:27:31.777Z,99.93
2016-12-01T03:28:31.729Z,99.99
2016-12-01T03:29:31.688Z,99.93
2016-12-01T03:30:31.648Z,99.99
2016-12-01T03:31:31.300Z,99.84
2016-12-01T03:32:31.556Z,99.79
2016-12-01T03:33:31.515Z,99.55
2016-12-01T03:34:31.471Z,99.99
2016-12-01T03:35:31.425Z,99.99
2016-12-01T03:36:31.384Z,99.99
2016-12-01T03:37:31.340Z,99.99
2016-12-01T03:38:31.296Z,99.99
2016-12-01T03:39:31.249Z,99.99
2016-12-01T03:40:31.207Z,99.99
2016-12-01T03:41:31.165Z,99.88
2016-12-01T03:42:31.123Z,99.98
2016-12-01T03:43:30.773Z,99.79
2016-12-01T03:44:31.037Z,99.99
2016-12-01T03:45:30.991Z,99.99
2016-12-01T03:46:30.646Z,99.99
2016-12-01T03:47:30.904Z,99.99
2016-12-01T03:48:30.559Z,99.7
2016-12-01T03:49:30.816Z,99.99
2016-12-01T03:50:30.772Z,99.99
2016-12-01T03:51:30.734Z,99.6
2016-12-01T03:52:30.387Z,99.74
2016-12-01T03:53:30.643Z,99.74
2016-12-01T03:54:30.598Z,99.74
2016-12-01T03:55:30.559Z,99.93
2016-12-01T03:56:30.509Z,99.74
2016-12-01T03:57:30.470Z,99.99
2016-12-01T03:58:30.426Z,99.99
2016-12-01T03:59:30.080Z,99.99
2016-12-01T04:00:30.338Z,99.99
2016-12-01T04:01:30.295Z,99.84
2016-12-01T04:02:30.253Z,99.74
2016-12-01T04:03:30.212Z,99.74
2016-12-01T04:04:29.863Z,99.84
2016-12-01T04:05:30.120Z,99.93
2016-12-01T04:06:30.101Z,99.93
2016-12-01T04:07:30.031Z,99.84
2016-12-01T04:08:29.991Z,99.84
2016-12-01T04:09:29.646Z,99.99
2016-12-01T04:10:29.900Z,99.99
2016-12-01T04:11:29.557Z,99.99
2016-12-01T04:12:29.826Z,99.55
2016-12-01T04:13:29.770Z,99.74
2016-12-01T04:14:29.427Z,99.99
2016-12-01T04:15:29.382Z,99.99
2016-12-01T04:16:29.640Z,99.84
2016-12-01T04:17:29.596Z,99.99
2016-12-01T04:18:29.551Z,99.84
2016-12-01T04:19:29.507Z,99.99
2016-12-01T04:20:29.468Z,99.99
2016-12-01T04:21:29.130Z,99.99
2016-12-01T04:22:29.376Z,99.99
2016-12-01T04:23:29.334Z,99.99
2016-12-01T04:24:28.988Z,99.99
2016-12-01T04:25:29.247Z,99.99
2016-12-01T04:26:29.204Z,99.84
2016-12-01T04:27:29.160Z,99.99
2016-12-01T04:28:29.115Z,99.99
2016-12-01T04:29:29.068Z,99.84
2016-12-01T04:30:29.030Z,99.99
2016-12-01T04:31:28.985Z,99.99
2016-12-01T04:32:28.942Z,99.99
2016-12-01T04:33:28.895Z,99.99
2016-12-01T04:34:28.854Z,99.99
2016-12-01T04:35:28.810Z,99.99
2016-12-01T04:36:28.466Z,99.99
2016-12-01T04:37:28.757Z,99.99
2016-12-01T04:38:28.681Z,99.99
2016-12-01T04:39:28.640Z,99.99
2016-12-01T04:40:28.598Z,99.99
2016-12-01T04:41:28.554Z,99.99
2016-12-01T04:42:28.507Z,99.99
2016-12-01T04:43:28.463Z,99.99
2016-12-01T04:44:28.424Z,99.93
2016-12-01T04:45:28.379Z,99.84
2016-12-01T04:46:28.334Z,99.99
2016-12-01T04:47:28.293Z,99.99
2016-12-01T04:48:27.941Z,99.99
2016-12-01T04:49:28.200Z,99.99
2016-12-01T04:50:28.156Z,99.99
2016-12-01T04:51:27.810Z,99.99
2016-12-01T04:52:28.069Z,99.99
2016-12-01T04:53:28.025Z,99.99
2016-12-01T04:54:27.983Z,99.99
2016-12-01T04:55:27.939Z,99.99
2016-12-01T04:56:27.900Z,99.99
2016-12-01T04:57:27.865Z,99.99
2016-12-01T04:58:27.807Z,99.74
2016-12-01T04:59:27.464Z,99.84
2016-12-01T05:00:27.721Z,99.99
2016-12-01T05:01:27.682Z,99.93
2016-12-01T05:02:27.633Z,99.84
2016-12-01T05:03:27.588Z,99.84
2016-12-01T05:04:27.549Z,99.74
2016-12-01T05:05:27.501Z,99.99
2016-12-01T05:06:27.459Z,99.99
2016-12-01T05:07:27.415Z,99.99
2016-12-01T05:08:27.070Z,99.99
2016-12-01T05:09:27.025Z,99.99
2016-12-01T05:10:27.284Z,99.99
2016-12-01T05:11:27.246Z,99.99
2016-12-01T05:12:27.200Z,99.99
2016-12-01T05:13:27.153Z,99.84
2016-12-01T05:14:27.115Z,99.99
2016-12-01T05:15:27.066Z,99.99
2016-12-01T05:16:27.057Z,99.99
2016-12-01T05:17:26.984Z,99.99
2016-12-01T05:18:26.643Z,99.99
2016-12-01T05:19:26.591Z,99.99
2016-12-01T05:20:26.851Z,99.99
2016-12-01T05:21:26.808Z,99.99
2016-12-01T05:22:26.761Z,99.99
2016-12-01T05:23:26.449Z,99.99
2016-12-01T05:24:26.677Z,99.99
2016-12-01T05:25:26.634Z,99.99
2016-12-01T05:26:26.287Z,99.99
2016-12-01T05:27:26.546Z,99.99
2016-12-01T05:28:26.503Z,99.99
2016-12-01T05:29:26.460Z,99.99
2016-12-01T05:30:26.417Z,99.99
2016-12-01T05:31:26.373Z,99.99
2016-12-01T05:32:26.330Z,99.99
2016-12-01T05:33:26.288Z,99.99
2016-12-01T05:34:26.242Z,99.98
2016-12-01T05:35:26.199Z,99.99
2016-12-01T05:36:25.853Z,99.99
2016-12-01T05:37:26.110Z,99.99
2016-12-01T05:38:26.070Z,99.88
2016-12-01T05:39:26.026Z,99.99
2016-12-01T05:40:25.981Z,99.99
2016-12-01T05:41:25.635Z,99.99
2016-12-01T05:42:25.895Z,99.99
2016-12-01T05:43:25.550Z,99.99
2016-12-01T05:44:25.809Z,99.99
2016-12-01T05:45:25.767Z,99.99
2016-12-01T05:46:25.718Z,99.99
2016-12-01T05:47:25.685Z,99.99
2016-12-01T05:48:25.635Z,99.99
2016-12-01T05:49:25.590Z,99.99
2016-12-01T05:50:25.544Z,99.98
2016-12-01T05:51:25.506Z,99.99
2016-12-01T05:52:25.463Z,99.98
2016-12-01T05:53:25.419Z,99.79
2016-12-01T05:54:25.373Z,99.98
2016-12-01T05:55:25.333Z,99.88
2016-12-01T05:56:24.986Z,99.99
2016-12-01T05:57:25.244Z,99.88
2016-12-01T05:58:25.201Z,99.99
2016-12-01T05:59:25.157Z,99.98
2016-12-01T06:00:25.116Z,99.99
2016-12-01T06:01:25.075Z,99.7
2016-12-01T06:02:25.029Z,99.7
2016-12-01T06:03:24.988Z,99.88
2016-12-01T06:04:24.942Z,99.7
2016-12-01T06:05:24.898Z,99.99
2016-12-01T06:06:24.854Z,99.99
2016-12-01T06:07:24.814Z,99.51
2016-12-01T06:08:24.467Z,99.32
2016-12-01T06:09:24.725Z,99.51
2016-12-01T06:10:24.705Z,99.6
2016-12-01T06:11:24.639Z,99.04
2016-12-01T06:12:24.596Z,99.51
2016-12-01T06:13:24.562Z,99.04
2016-12-01T06:14:24.510Z,99.22
2016-12-01T06:15:24.465Z,99.22
2016-12-01T06:16:24.421Z,98.94
2016-12-01T06:17:24.378Z,99.04
2016-12-01T06:18:24.036Z,99.04
2016-12-01T06:19:24.293Z,99.13
2016-12-01T06:20:24.255Z,98.85
2016-12-01T06:21:23.907Z,99.04
2016-12-01T06:22:24.161Z,99.22
2016-12-01T06:23:24.120Z,99.32
2016-12-01T06:24:24.077Z,99.22
2016-12-01T06:25:23.732Z,99.22
2016-12-01T06:26:23.990Z,99.04
2016-12-01T06:27:23.952Z,99.13
2016-12-01T06:28:23.906Z,99.22
2016-12-01T06:29:23.890Z,99.04
2016-12-01T06:30:23.816Z,99.04
2016-12-01T06:31:23.778Z,98.85
2016-12-01T06:32:23.731Z,98.85
2016-12-01T06:33:23.687Z,99.13
2016-12-01T06:34:23.654Z,99.22
2016-12-01T06:35:23.600Z,99.22
2016-12-01T06:36:23.559Z,99.22
2016-12-01T06:37:23.556Z,99.51
2016-12-01T06:38:23.469Z,99.41
2016-12-01T06:39:23.122Z,99.32
2016-12-01T06:40:23.385Z,99.51
2016-12-01T06:41:23.341Z,99.98
2016-12-01T06:42:23.296Z,99.99
2016-12-01T06:43:22.952Z,99.99
2016-12-01T06:44:22.909Z,99.98
2016-12-01T06:45:23.166Z,99.51
2016-12-01T06:46:23.125Z,99.51
2016-12-01T06:47:23.081Z,99.32
2016-12-01T06:48:23.043Z,99.6
2016-12-01T06:49:22.993Z,99.32
2016-12-01T06:50:22.953Z,99.22
2016-12-01T06:51:22.909Z,99.7
2016-12-01T06:52:22.864Z,99.99
2016-12-01T06:53:22.872Z,99.98
2016-12-01T06:54:22.781Z,99.99
2016-12-01T06:55:22.736Z,99.99
2016-12-01T06:56:22.696Z,99.88
2016-12-01T06:57:22.654Z,99.88
2016-12-01T06:58:22.606Z,99.88
2016-12-01T06:59:22.564Z,99.7
2016-12-01T07:00:22.520Z,99.98
2016-12-01T07:01:22.477Z,99.79
2016-12-01T07:02:22.432Z,99.98
2016-12-01T07:03:22.090Z,99.51
2016-12-01T07:04:22.345Z,99.51
2016-12-01T07:05:22.308Z,99.51
2016-12-01T07:06:22.258Z,99.22
2016-12-01T07:07:22.215Z,99.22
2016-12-01T07:08:22.177Z,99.41
2016-12-01T07:09:22.132Z,99.51
2016-12-01T07:10:22.089Z,99.32
2016-12-01T07:11:22.045Z,99.22
2016-12-01T07:12:22.002Z,98.94
2016-12-01T07:13:21.961Z,99.41
2016-12-01T07:14:21.915Z,99.41
2016-12-01T07:15:21.873Z,99.04
2016-12-01T07:16:21.528Z,99.27
2016-12-01T07:17:21.481Z,99.27
2016-12-01T07:18:21.745Z,99.08
2016-12-01T07:19:21.699Z,98.8
2016-12-01T07:20:21.661Z,98.9
2016-12-01T07:21:21.617Z,99.18
2016-12-01T07:22:21.271Z,99.08
2016-12-01T07:23:21.224Z,99.27
2016-12-01T07:24:21.186Z,99.37
2016-12-01T07:25:21.438Z,99.08
2016-12-01T07:26:21.398Z,98.9
2016-12-01T07:27:21.380Z,98.99
2016-12-01T07:28:21.322Z,99.08
2016-12-01T07:29:21.280Z,99.46
2016-12-01T07:30:20.925Z,98.8
2016-12-01T07:31:21.184Z,98.8
2016-12-01T07:32:21.143Z,98.99
2016-12-01T07:33:21.096Z,98.9
2016-12-01T07:34:20.751Z,99.18
2016-12-01T07:35:21.014Z,98.99
2016-12-01T07:36:20.662Z,98.99
2016-12-01T07:37:20.927Z,98.8
2016-12-01T07:38:20.881Z,98.52
2016-12-01T07:39:20.839Z,98.99
2016-12-01T07:40:20.802Z,99.14
2016-12-01T07:41:20.451Z,99.04
2016-12-01T07:42:20.712Z,98.47
2016-12-01T07:43:20.670Z,98.95
2016-12-01T07:44:20.623Z,98.28
2016-12-01T07:45:20.587Z,98.76
2016-12-01T07:46:20.539Z,99.04
2016-12-01T07:47:20.196Z,98.95
2016-12-01T07:48:20.456Z,98.95
2016-12-01T07:49:20.414Z,98.47
2016-12-01T07:50:20.369Z,98.28
2016-12-01T07:51:20.328Z,98.19
2016-12-01T07:52:20.284Z,98.19
2016-12-01T07:53:20.246Z,98.38
2016-12-01T07:54:20.203Z,98.28
2016-12-01T07:55:19.860Z,98.19
2016-12-01T07:56:20.112Z,98.1
2016-12-01T07:57:20.072Z,98.47
2016-12-01T07:58:20.032Z,98.38
2016-12-01T07:59:19.989Z,98.28
2016-12-01T08:00:19.944Z,97.91
2016-12-01T08:01:19.904Z,98.19
2016-12-01T08:02:19.561Z,97.81
2016-12-01T08:03:19.819Z,98.28
2016-12-01T08:04:19.775Z,98.28
2016-12-01T08:05:19.734Z,98.57
2016-12-01T08:06:19.887Z,97.81
2016-12-01T08:07:19.650Z,98.19
2016-12-01T08:08:19.305Z,97.63
2016-12-01T08:09:19.571Z,98
2016-12-01T08:10:19.222Z,97.72
2016-12-01T08:11:19.479Z,97.72
2016-12-01T08:12:19.439Z,97.34
2016-12-01T08:13:19.393Z,96.92
2016-12-01T08:14:19.353Z,97.39
2016-12-01T08:15:19.310Z,96.96
2016-12-01T08:16:19.266Z,97.3
2016-12-01T08:17:19.226Z,97.3
2016-12-01T08:18:18.886Z,97.11
2016-12-01T08:19:18.843Z,97.2
2016-12-01T08:20:19.130Z,97.49
2016-12-01T08:21:19.058Z,97.49
2016-12-01T08:22:19.021Z,97.67
2016-12-01T08:23:18.673Z,97.01
2016-12-01T08:24:18.932Z,97.39
2016-12-01T08:25:18.895Z,97.2
2016-12-01T08:26:18.849Z,96.73
2016-12-01T08:27:18.502Z,97.3
2016-12-01T08:28:18.459Z,97.01
2016-12-01T08:29:18.723Z,97.2
2016-12-01T08:30:18.678Z,97.2
2016-12-01T08:31:18.334Z,97.39
2016-12-01T08:32:18.595Z,96.64
2016-12-01T08:33:18.555Z,96.45
2016-12-01T08:34:18.512Z,96.83
2016-12-01T08:35:18.468Z,96.83
2016-12-01T08:36:18.427Z,97.01
2016-12-01T08:37:18.387Z,96.64
2016-12-01T08:38:18.343Z,96.83
2016-12-01T08:39:18.302Z,96.59
2016-12-01T08:40:18.260Z,96.31
2016-12-01T08:41:17.916Z,96.59
2016-12-01T08:42:17.873Z,96.88
2016-12-01T08:43:18.134Z,97.06
2016-12-01T08:44:18.094Z,96.5
2016-12-01T08:45:18.055Z,96.21
2016-12-01T08:46:18.016Z,96.5
2016-12-01T08:47:17.663Z,96.59
2016-12-01T08:48:17.928Z,96.31
2016-12-01T08:49:17.887Z,96.4
2016-12-01T08:50:17.842Z,96.31
2016-12-01T08:51:17.801Z,96.21
2016-12-01T08:52:17.459Z,96.21
2016-12-01T08:53:17.717Z,96.31
2016-12-01T08:54:17.679Z,95.93
2016-12-01T08:55:17.641Z,95.83
2016-12-01T08:56:17.595Z,96.12
2016-12-01T08:57:17.250Z,95.83
2016-12-01T08:58:17.210Z,95.55
2016-12-01T08:59:17.471Z,95.83
2016-12-01T09:00:17.429Z,95.83
2016-12-01T09:01:17.390Z,96.12
2016-12-01T09:02:17.350Z,95.83
2016-12-01T09:03:17.003Z,95.83
2016-12-01T09:04:17.266Z,95.64
2016-12-01T09:05:17.230Z,95.45
2016-12-01T09:06:16.900Z,96.02
2016-12-01T09:07:17.139Z,95.74
2016-12-01T09:08:17.099Z,96.31
2016-12-01T09:09:16.758Z,95.45
2016-12-01T09:10:17.017Z,95.74
2016-12-01T09:11:16.974Z,95.74
2016-12-01T09:12:16.633Z,95.93
2016-12-01T09:13:16.900Z,95.21
2016-12-01T09:14:16.852Z,95.69
2016-12-01T09:15:16.819Z,95.59
2016-12-01T09:16:16.769Z,95.5
2016-12-01T09:17:16.427Z,95.12
2016-12-01T09:18:16.703Z,95.12
2016-12-01T09:19:16.646Z,95.12
2016-12-01T09:20:16.302Z,95.12
2016-12-01T09:21:16.564Z,95.12
2016-12-01T09:22:16.223Z,94.74
2016-12-01T09:23:16.496Z,94.18
2016-12-01T09:24:16.450Z,94.56
2016-12-01T09:25:16.400Z,94.37
2016-12-01T09:26:16.363Z,94.18
2016-12-01T09:27:16.319Z,93.99
2016-12-01T09:28:16.277Z,93.94
2016-12-01T09:29:16.236Z,94.04
2016-12-01T09:30:16.198Z,93.75
2016-12-01T09:31:16.160Z,93.37
2016-12-01T09:32:15.816Z,93.46
2016-12-01T09:33:16.074Z,92.43
2016-12-01T09:34:16.033Z,92.8
2016-12-01T09:35:15.999Z,92.33
2016-12-01T09:36:15.952Z,92.24
2016-12-01T09:37:15.915Z,91.95
2016-12-01T09:38:15.567Z,91.48
2016-12-01T09:39:15.831Z,91.62
2016-12-01T09:40:15.789Z,91.14
2016-12-01T09:41:15.447Z,90.39
2016-12-01T09:42:15.707Z,90.01
2016-12-01T09:43:15.668Z,90.29
2016-12-01T09:44:15.332Z,89.53
2016-12-01T09:45:15.591Z,89.25
2016-12-01T09:46:15.548Z,88.4
2016-12-01T09:47:15.510Z,88.68
2016-12-01T09:48:15.164Z,87.73
2016-12-01T09:49:15.426Z,87.97
2016-12-01T09:50:15.386Z,88.16
2016-12-01T09:51:15.046Z,87.59
2016-12-01T09:52:15.006Z,86.83
2016-12-01T09:53:14.966Z,86.83
2016-12-01T09:54:15.229Z,86.07
2016-12-01T09:55:15.187Z,86.26
2016-12-01T09:56:14.846Z,86.26
2016-12-01T09:57:15.110Z,86.16
2016-12-01T09:58:15.065Z,85.88
2016-12-01T09:59:15.032Z,85.69
2016-12-01T10:00:14.988Z,85.5
2016-12-01T10:01:14.955Z,85.41
2016-12-01T10:02:14.907Z,85.03
2016-12-01T10:03:14.870Z,85.13
2016-12-01T10:04:14.832Z,84.74
2016-12-01T10:05:14.492Z,84.46
2016-12-01T10:06:14.753Z,84.12
2016-12-01T10:07:14.417Z,83.94
2016-12-01T10:08:14.675Z,83.94
2016-12-01T10:09:14.638Z,84.03
2016-12-01T10:10:14.302Z,83.65
2016-12-01T10:11:14.561Z,83.94
2016-12-01T10:12:14.233Z,83.17
2016-12-01T10:13:14.477Z,83.17
2016-12-01T10:14:14.440Z,83.08
2016-12-01T10:15:14.404Z,83.27
2016-12-01T10:16:14.059Z,82.51
2016-12-01T10:17:14.324Z,81.85
2016-12-01T10:18:14.283Z,81.41
2016-12-01T10:19:14.251Z,81.23
2016-12-01T10:20:14.205Z,80.84
2016-12-01T10:21:14.177Z,80.46
2016-12-01T10:22:14.133Z,80.75
2016-12-01T10:23:13.786Z,81.23
2016-12-01T10:24:13.749Z,79.99
2016-12-01T10:25:14.017Z,79.71
2016-12-01T10:26:13.672Z,79.61
2016-12-01T10:27:13.935Z,78.95
2016-12-01T10:28:13.898Z,79.14
2016-12-01T10:29:13.865Z,79.33
2016-12-01T10:30:13.821Z,79.9
2016-12-01T10:31:13.783Z,79.52
2016-12-01T10:32:13.444Z,79.33
2016-12-01T10:33:13.705Z,79.14
2016-12-01T10:34:13.368Z,79.71
2016-12-01T10:35:13.627Z,79.99
2016-12-01T10:36:13.588Z,80.08
2016-12-01T10:37:13.256Z,79.8
2016-12-01T10:38:13.513Z,80.08
2016-12-01T10:39:13.475Z,79.66
2016-12-01T10:40:13.141Z,79.57
2016-12-01T10:41:13.096Z,79.47
2016-12-01T10:42:13.367Z,79.99
2016-12-01T10:43:13.321Z,78.95
2016-12-01T10:44:13.283Z,76.52
2016-12-01T10:45:13.242Z,74.47
2016-12-01T10:46:13.205Z,70.42
2016-12-01T10:47:13.166Z,66.87
2016-12-01T10:48:13.131Z,63.32
2016-12-01T10:49:13.093Z,60.21
2016-12-01T10:50:13.055Z,57.86
2016-12-01T10:51:13.020Z,55.69
2016-12-01T10:52:12.983Z,53.33
2016-12-01T10:53:12.950Z,50.98
2016-12-01T10:54:12.916Z,50.88
2016-12-01T10:55:12.574Z,50.12
2016-12-01T10:56:12.542Z,48.71
2016-12-01T10:57:12.806Z,48.42
2016-12-01T10:58:12.771Z,48.23
2016-12-01T10:59:12.735Z,46.63
2016-12-01T11:00:12.405Z,45.7
2016-12-01T11:01:12.675Z,45.12
2016-12-01T11:02:12.638Z,45.2
2016-12-01T11:03:12.300Z,45.29
2016-12-01T11:04:12.569Z,45.2
2016-12-01T11:05:12.237Z,45.77
2016-12-01T11:06:12.505Z,45.56
2016-12-01T11:07:12.477Z,45.65
2016-12-01T11:08:12.439Z,45.2
2016-12-01T11:09:12.445Z,44.91
2016-12-01T11:10:12.371Z,44.62
2016-12-01T11:11:12.033Z,43.76
2016-12-01T11:12:12.336Z,42.73
2016-12-01T11:13:12.275Z,42.83
2016-12-01T11:14:11.942Z,42.54
2016-12-01T11:15:12.210Z,42.25
2016-12-01T11:16:12.173Z,41.87
2016-12-01T11:17:12.142Z,41.58
2016-12-01T11:18:12.113Z,41.68
2016-12-01T11:19:12.079Z,41.78
2016-12-01T11:20:11.744Z,41.58
2016-12-01T11:21:12.015Z,41.58
2016-12-01T11:22:12.009Z,41.11
2016-12-01T11:23:11.951Z,41.11
2016-12-01T11:24:11.616Z,41.49
2016-12-01T11:25:11.886Z,41.78
2016-12-01T11:26:11.854Z,41.66
2016-12-01T11:27:11.517Z,41.18
2016-12-01T11:28:11.484Z,40.92
2016-12-01T11:29:11.758Z,41.01
2016-12-01T11:30:11.720Z,40.63
2016-12-01T11:31:11.687Z,40.06
2016-12-01T11:32:11.655Z,39.96
2016-12-01T11:33:11.627Z,40.15
2016-12-01T11:34:11.593Z,40.06
2016-12-01T11:35:11.556Z,40.06
2016-12-01T11:36:11.522Z,40.15
2016-12-01T11:37:11.493Z,40.06
2016-12-01T11:38:11.455Z,40.06
2016-12-01T11:39:11.420Z,40.42
2016-12-01T11:40:11.386Z,40.8
2016-12-01T11:41:11.351Z,41.09
2016-12-01T11:42:11.015Z,41.56
2016-12-01T11:43:11.285Z,41.93
2016-12-01T11:44:11.247Z,42.69
2016-12-01T11:45:11.215Z,42.88
2016-12-01T11:46:11.178Z,43.53
2016-12-01T11:47:11.146Z,44.46
2016-12-01T11:48:11.111Z,45.42
2016-12-01T11:49:11.074Z,46.08
2016-12-01T11:50:11.040Z,46.27
2016-12-01T11:51:11.005Z,45.97
2016-12-01T11:52:10.967Z,46.34
2016-12-01T11:53:10.628Z,46.92
2016-12-01T11:54:10.904Z,46.63
2016-12-01T11:55:10.859Z,46.54
2016-12-01T11:56:10.830Z,45.89
2016-12-01T11:57:10.486Z,45.79
2016-12-01T11:58:10.757Z,45.51
2016-12-01T11:59:10.717Z,45.61
2016-12-01T12:00:10.378Z,45.7
2016-12-01T12:01:10.643Z,45.99
2016-12-01T12:02:10.607Z,46.75
2016-12-01T12:03:10.568Z,46.82
2016-12-01T12:04:10.533Z,47.3
2016-12-01T12:05:10.192Z,48.61
2016-12-01T12:06:10.155Z,50.3
2016-12-01T12:07:10.423Z,51.42
2016-12-01T12:08:10.086Z,53.01
2016-12-01T12:09:10.346Z,54.15
2016-12-01T12:10:10.010Z,54.79
2016-12-01T12:11:09.972Z,55.74
2016-12-01T12:12:10.234Z,56.95
2016-12-01T12:13:09.897Z,57.71
2016-12-01T12:14:09.857Z,58.44
2016-12-01T12:15:10.127Z,59.01
2016-12-01T12:16:10.091Z,59.96
2016-12-01T12:17:10.057Z,60.06
2016-12-01T12:18:10.010Z,60.53
2016-12-01T12:19:09.973Z,60.63
2016-12-01T12:20:09.941Z,61.2
2016-12-01T12:21:09.898Z,61.48
2016-12-01T12:22:09.865Z,61.68
2016-12-01T12:23:09.839Z,61.48
2016-12-01T12:24:09.783Z,61.96
2016-12-01T12:25:09.744Z,61.55
2016-12-01T12:26:09.407Z,61.93
2016-12-01T12:27:09.670Z,62.69
2016-12-01T12:28:09.633Z,62.59
2016-12-01T12:29:09.592Z,63.35
2016-12-01T12:30:09.554Z,63.73
2016-12-01T12:31:09.516Z,63.92
2016-12-01T12:32:09.479Z,64.4
2016-12-01T12:33:09.440Z,64.08
2016-12-01T12:34:09.101Z,64.02
2016-12-01T12:35:09.362Z,64.46
2016-12-01T12:36:09.022Z,64.69
2016-12-01T12:37:08.987Z,64.65
2016-12-01T12:38:09.253Z,65.31
2016-12-01T12:39:08.908Z,65.31
2016-12-01T12:40:08.872Z,65.69
2016-12-01T12:41:09.133Z,65.69
2016-12-01T12:42:09.096Z,65.6
2016-12-01T12:43:09.064Z,65.69
2016-12-01T12:44:09.015Z,65.5
2016-12-01T12:45:08.977Z,65.12
2016-12-01T12:46:08.639Z,65.31
2016-12-01T12:47:08.909Z,65.5
2016-12-01T12:48:08.862Z,65.41
2016-12-01T12:49:08.825Z,64.84
2016-12-01T12:50:08.481Z,64.94
2016-12-01T12:51:08.742Z,64.75
2016-12-01T12:52:08.403Z,65.41
2016-12-01T12:53:08.668Z,65.31
2016-12-01T12:54:08.328Z,65.22